Time;durP1;ratioP1;P1;durP2;ratioP2;P2;SDS_P1;SDS_P2;PMS_P1;PMS_P2;Temp;Humidity;BMP_temperature;BMP_pressure;BME280_temperature;BME280_humidity;BME280_pressure;Samples;Min_cycle;Max_cycle;Signal;HPM_P1;HPM_P2
2022/03/02 00:01:57;;;;;;;14.30;8.38;;;1.90;99.90;;;;;;4958668;28;20376;-79
2022/03/02 00:04:23;;;;;;;19.38;8.90;;;1.90;99.90;;;;;;4975364;28;20023;-79
2022/03/02 00:06:48;;;;;;;15.93;8.98;;;1.80;99.90;;;;;;4957909;28;20117;-79
2022/03/02 00:09:14;;;;;;;14.13;8.70;;;1.90;99.90;;;;;;4958342;28;20041;-79
2022/03/02 00:11:40;;;;;;;17.70;8.85;;;2.00;99.90;;;;;;4959179;28;20039;-79
2022/03/02 00:14:06;;;;;;;16.38;9.48;;;2.00;99.90;;;;;;4976312;28;20031;-79
2022/03/02 00:16:32;;;;;;;18.65;9.80;;;2.20;99.90;;;;;;4976644;28;20027;-79
2022/03/02 00:18:59;;;;;;;15.77;9.10;;;2.40;99.90;;;;;;4959796;28;20455;-79
2022/03/02 00:21:25;;;;;;;16.90;9.23;;;2.30;99.90;;;;;;4978702;28;20445;-79
2022/03/02 00:23:51;;;;;;;17.00;9.07;;;4.80;99.90;;;;;;4976170;28;20027;-79
2022/03/02 00:26:17;;;;;;;17.38;9.15;;;2.10;99.90;;;;;;4975396;28;20030;-79
2022/03/02 00:28:43;;;;;;;13.90;8.43;;;2.10;99.90;;;;;;4960729;28;20038;-79
2022/03/02 00:31:09;;;;;;;18.85;7.90;;;2.10;99.90;;;;;;4946105;28;20472;-79
2022/03/02 00:33:35;;;;;;;17.13;9.40;;;2.00;99.90;;;;;;4961549;28;20034;-79
2022/03/02 00:36:02;;;;;;;17.83;9.00;;;2.00;99.90;;;;;;4963802;28;20087;-79
2022/03/02 00:38:27;;;;;;;14.80;9.00;;;1.80;99.90;;;;;;4972466;28;20054;-79
2022/03/02 00:40:53;;;;;;;16.00;9.40;;;1.70;99.90;;;;;;4971142;28;20027;-79
2022/03/02 00:43:19;;;;;;;16.23;9.05;;;1.50;99.90;;;;;;4950289;28;20043;-79
2022/03/02 00:45:44;;;;;;;13.38;8.70;;;1.60;99.90;;;;;;4950494;28;20042;-79
2022/03/02 00:48:10;;;;;;;13.60;8.15;;;1.30;99.90;;;;;;4949628;28;20115;-79
2022/03/02 00:50:37;;;;;;;20.20;9.90;;;1.50;99.90;;;;;;4964596;28;20126;-79
2022/03/02 00:53:05;;;;;;;13.82;7.93;;;1.40;99.90;;;;;;4949168;28;20027;-79
2022/03/02 00:55:32;;;;;;;17.58;10.18;;;2.00;99.90;;;;;;4951248;28;20300;-79
2022/03/02 00:57:58;;;;;;;18.92;9.18;;;1.20;99.90;;;;;;4972757;28;20110;-79
2022/03/02 01:00:23;;;;;;;15.50;9.57;;;1.30;99.90;;;;;;4973096;28;20038;-79
2022/03/02 01:02:49;;;;;;;20.00;9.60;;;1.10;99.90;;;;;;4972327;28;20046;-79
2022/03/02 01:05:16;;;;;;;16.08;8.90;;;1.30;99.90;;;;;;4991054;28;20034;-79
2022/03/02 01:07:42;;;;;;;19.02;9.88;;;1.20;99.90;;;;;;4972562;28;20041;-79
2022/03/02 01:10:08;;;;;;;15.30;8.60;;;1.30;99.90;;;;;;4964250;28;20034;-79
2022/03/02 01:12:34;;;;;;;14.57;8.02;;;1.20;99.90;;;;;;4945446;28;20027;-79
2022/03/02 01:15:00;;;;;;;17.15;8.80;;;0.20;99.90;;;;;;4961504;28;20027;-79
2022/03/02 01:17:26;;;;;;;14.70;8.65;;;1.10;99.90;;;;;;4961052;28;20031;-79
2022/03/02 01:19:52;;;;;;;14.82;8.82;;;1.00;99.90;;;;;;4961943;28;20031;-79
2022/03/02 01:22:19;;;;;;;15.50;8.77;;;1.10;99.90;;;;;;4962217;28;20023;-79
2022/03/02 01:24:45;;;;;;;15.98;8.18;;;2.10;99.90;;;;;;4961277;28;20447;-79
2022/03/02 01:27:10;;;;;;;17.52;8.95;;;1.10;99.90;;;;;;4979147;28;20030;-79
2022/03/02 01:29:38;;;;;;;16.88;8.85;;;1.20;99.90;;;;;;4960524;28;20421;-79
2022/03/02 01:32:06;;;;;;;19.77;9.75;;;2.60;99.90;;;;;;4946281;28;20031;-79
2022/03/02 01:34:32;;;;;;;15.05;8.82;;;1.10;99.90;;;;;;4946018;28;20030;-79
2022/03/02 01:36:57;;;;;;;14.35;8.45;;;1.20;99.90;;;;;;4946130;28;20029;-79
2022/03/02 01:39:23;;;;;;;16.08;8.65;;;1.10;99.90;;;;;;4944484;28;20058;-79
2022/03/02 01:41:49;;;;;;;15.15;9.30;;;2.10;99.90;;;;;;4941185;28;20039;-79
2022/03/02 01:44:15;;;;;;;16.17;9.77;;;0.90;99.90;;;;;;4958555;28;20028;-79
2022/03/02 01:46:41;;;;;;;18.92;9.52;;;0.40;99.90;;;;;;4953852;28;20038;-79
2022/03/02 01:49:07;;;;;;;16.17;9.07;;;0.60;99.90;;;;;;4959574;28;20037;-79
2022/03/02 01:51:34;;;;;;;19.60;9.80;;;0.40;99.90;;;;;;4957679;29;20036;-79
2022/03/02 01:54:00;;;;;;;17.67;9.27;;;0.20;99.90;;;;;;4957524;28;20054;-79
2022/03/02 01:56:26;;;;;;;16.45;9.52;;;0.00;99.90;;;;;;4943622;28;20030;-79
2022/03/02 01:58:52;;;;;;;19.58;9.57;;;0.10;99.90;;;;;;4962200;28;20027;-79
2022/03/02 02:01:18;;;;;;;16.02;10.07;;;1.00;99.90;;;;;;4946685;28;20530;-79
2022/03/02 02:03:44;;;;;;;16.45;9.15;;;-0.10;99.90;;;;;;4943276;28;20398;-79
2022/03/02 02:06:10;;;;;;;17.05;9.38;;;-0.20;99.90;;;;;;4942831;28;20506;-79
2022/03/02 02:08:36;;;;;;;17.92;9.93;;;0.00;99.90;;;;;;4957200;28;20031;-79
2022/03/02 02:11:03;;;;;;;17.02;9.43;;;-0.10;99.90;;;;;;4948157;28;20045;-79
2022/03/02 02:13:34;;;;;;;17.48;10.27;;;-0.20;99.90;;;;;;4956854;28;20113;-79
2022/03/02 02:16:01;;;;;;;18.25;10.02;;;-0.40;99.90;;;;;;4957476;28;20023;-78
2022/03/02 02:18:27;;;;;;;14.88;8.70;;;1.40;99.90;;;;;;4938797;28;20344;-79
2022/03/02 02:20:53;;;;;;;17.67;9.55;;;1.00;99.90;;;;;;4972508;28;20050;-79
2022/03/02 02:23:19;;;;;;;16.98;9.80;;;0.60;99.90;;;;;;4975370;28;20027;-78
2022/03/02 02:25:44;;;;;;;17.05;10.18;;;-0.80;99.90;;;;;;4956904;28;20030;-78
2022/03/02 02:28:12;;;;;;;19.50;11.05;;;-1.00;99.90;;;;;;4955145;28;20042;-79
2022/03/02 02:30:38;;;;;;;17.50;10.40;;;-0.30;99.90;;;;;;4955790;28;20055;-79
2022/03/02 02:33:04;;;;;;;21.85;10.38;;;-1.00;99.90;;;;;;4963838;28;20033;-79
2022/03/02 02:35:29;;;;;;;15.63;9.65;;;-1.00;99.90;;;;;;4981990;28;20096;-79
2022/03/02 02:37:58;;;;;;;16.20;9.80;;;-0.90;99.90;;;;;;4958312;28;20034;-79
2022/03/02 02:40:26;;;;;;;17.33;9.85;;;-1.10;99.90;;;;;;4962037;28;20033;-78
2022/03/02 02:42:52;;;;;;;16.58;10.07;;;-1.20;99.90;;;;;;4966531;28;20037;-78
2022/03/02 02:45:20;;;;;;;20.55;10.55;;;-1.40;99.90;;;;;;4981857;28;20056;-78
2022/03/02 02:47:53;;;;;;;19.88;11.15;;;-1.40;99.90;;;;;;4948601;28;20031;-78
2022/03/02 02:50:21;;;;;;;20.80;10.15;;;-1.60;99.90;;;;;;4969896;28;20027;-78
2022/03/02 02:52:47;;;;;;;19.45;11.18;;;-1.60;99.90;;;;;;4965818;28;20030;-78
2022/03/02 02:55:14;;;;;;;18.63;10.70;;;-1.80;99.90;;;;;;4960896;28;20026;-78
2022/03/02 02:57:40;;;;;;;17.55;10.80;;;-1.70;99.90;;;;;;4943840;28;20026;-78
2022/03/02 03:00:08;;;;;;;17.88;11.25;;;0.00;99.90;;;;;;4985371;28;20027;-78
2022/03/02 03:02:34;;;;;;;19.42;10.85;;;-1.90;99.90;;;;;;4949177;29;20104;-78
2022/03/02 03:05:00;;;;;;;18.00;10.93;;;-2.00;99.90;;;;;;4961131;29;20504;-78
2022/03/02 03:07:25;;;;;;;18.92;10.60;;;-1.00;99.90;;;;;;4946031;28;20038;-78
2022/03/02 03:09:51;;;;;;;19.00;10.07;;;-1.90;99.90;;;;;;4963919;28;20050;-78
2022/03/02 03:12:17;;;;;;;18.05;10.30;;;-1.60;99.90;;;;;;4948391;28;20033;-78
2022/03/02 03:14:43;;;;;;;21.50;10.88;;;-1.70;99.90;;;;;;4948323;28;20070;-78
2022/03/02 03:17:08;;;;;;;24.00;11.27;;;-1.70;99.90;;;;;;4964319;28;20038;-78
2022/03/02 03:19:34;;;;;;;19.83;10.98;;;-1.70;99.90;;;;;;4963822;28;20023;-78
2022/03/02 03:22:07;;;;;;;16.13;10.38;;;-1.70;99.90;;;;;;4964339;28;20043;-78
2022/03/02 03:24:34;;;;;;;16.30;10.02;;;-1.70;99.90;;;;;;4964608;28;20034;-78
2022/03/02 03:27:00;;;;;;;19.88;11.23;;;-1.90;99.90;;;;;;4964703;28;20037;-78
2022/03/02 03:29:25;;;;;;;19.83;10.93;;;-2.20;99.90;;;;;;4980091;28;20125;-78
2022/03/02 03:31:51;;;;;;;17.95;10.65;;;-2.40;99.90;;;;;;4947654;28;20049;-78
2022/03/02 03:34:17;;;;;;;19.48;10.75;;;-2.40;99.90;;;;;;4980205;28;20118;-78
2022/03/02 03:36:42;;;;;;;18.63;11.15;;;-2.50;99.90;;;;;;4980443;28;20066;-78
2022/03/02 03:39:09;;;;;;;20.30;12.23;;;-2.60;99.90;;;;;;4942282;28;20077;-78
2022/03/02 03:41:34;;;;;;;20.02;11.20;;;-2.80;99.90;;;;;;4960492;28;20020;-78
2022/03/02 03:44:00;;;;;;;19.15;11.27;;;-3.00;99.90;;;;;;4958259;28;20035;-78
2022/03/02 03:46:26;;;;;;;21.90;11.25;;;-2.90;99.90;;;;;;4943934;28;20046;-78
2022/03/02 03:48:52;;;;;;;20.30;11.40;;;-3.00;99.90;;;;;;4978079;28;20046;-78
2022/03/02 03:51:17;;;;;;;22.25;11.95;;;-3.20;99.90;;;;;;4961276;28;20030;-78
2022/03/02 03:53:43;;;;;;;21.30;12.13;;;-3.10;99.90;;;;;;4961456;28;20041;-78
2022/03/02 03:56:09;;;;;;;19.55;11.60;;;-3.10;99.90;;;;;;4961993;28;20072;-78
2022/03/02 03:58:34;;;;;;;21.98;12.13;;;-3.10;99.90;;;;;;4977478;28;20058;-78
2022/03/02 04:01:00;;;;;;;21.58;13.05;;;-3.10;99.90;;;;;;4960828;28;20030;-78
2022/03/02 04:03:26;;;;;;;25.55;12.85;;;-3.00;99.90;;;;;;4960736;28;20039;-78
2022/03/02 04:05:52;;;;;;;23.52;12.18;;;-3.10;99.90;;;;;;4981846;28;20027;-77
2022/03/02 04:08:18;;;;;;;21.05;11.45;;;-3.00;99.90;;;;;;4980714;28;20022;-77
2022/03/02 04:10:45;;;;;;;23.17;11.98;;;-3.10;99.90;;;;;;4976153;28;20030;-78
2022/03/02 04:13:11;;;;;;;24.70;12.40;;;-2.80;99.90;;;;;;4973297;28;20027;-77
2022/03/02 04:15:38;;;;;;;22.23;11.60;;;-2.90;99.90;;;;;;4973298;28;20019;-77
2022/03/02 04:18:06;;;;;;;20.23;11.82;;;-2.70;99.90;;;;;;4972874;28;20027;-77
2022/03/02 04:20:32;;;;;;;22.13;11.60;;;-2.80;99.90;;;;;;4972278;28;20498;-77
2022/03/02 04:22:58;;;;;;;23.92;12.60;;;-2.90;99.90;;;;;;4972872;28;20033;-77
2022/03/02 04:25:24;;;;;;;21.73;11.82;;;-2.80;99.90;;;;;;4972725;28;20106;-77
2022/03/02 04:27:49;;;;;;;23.23;12.23;;;-2.70;99.90;;;;;;4954882;28;20521;-77
2022/03/02 04:30:15;;;;;;;24.13;12.35;;;-2.60;99.90;;;;;;4954884;28;20041;-77
2022/03/02 04:32:41;;;;;;;20.63;11.57;;;-2.50;99.90;;;;;;4972725;28;20050;-77
2022/03/02 04:35:09;;;;;;;23.13;11.10;;;-2.40;99.90;;;;;;4972335;28;20054;-76
2022/03/02 04:37:35;;;;;;;19.00;11.68;;;-2.30;99.90;;;;;;4972462;28;20027;-76
2022/03/02 04:40:01;;;;;;;22.33;12.10;;;-2.30;99.90;;;;;;4954098;28;20122;-76
2022/03/02 04:42:26;;;;;;;21.88;11.40;;;-2.30;99.90;;;;;;4972231;28;20114;-77
2022/03/02 04:44:52;;;;;;;24.52;12.70;;;-2.30;99.90;;;;;;4972336;28;20084;-76
2022/03/02 04:47:18;;;;;;;21.42;12.88;;;-2.30;99.90;;;;;;4954618;28;20031;-76
2022/03/02 04:49:43;;;;;;;21.77;12.32;;;-0.50;99.90;;;;;;4954185;28;20037;-77
2022/03/02 04:52:09;;;;;;;23.95;12.35;;;-2.50;99.90;;;;;;4955188;28;20488;-76
2022/03/02 04:57:18;;;;;;;20.65;11.85;;;-2.50;99.90;;;;;;4971977;28;20092;-77
2022/03/02 04:59:44;;;;;;;21.95;12.50;;;-2.50;99.90;;;;;;4953396;28;20035;-77
2022/03/02 05:02:10;;;;;;;20.88;12.13;;;-2.40;99.90;;;;;;4972646;28;20030;-77
2022/03/02 05:04:35;;;;;;;23.25;13.25;;;-2.50;99.90;;;;;;4939417;28;20038;-77
2022/03/02 05:07:01;;;;;;;23.13;12.27;;;-0.70;99.90;;;;;;4972587;28;20038;-77
2022/03/02 05:09:26;;;;;;;19.50;11.20;;;-2.40;99.90;;;;;;4943574;29;20035;-77
2022/03/02 05:11:52;;;;;;;20.52;11.05;;;-2.50;99.90;;;;;;4953005;29;20488;-77
2022/03/02 05:14:18;;;;;;;22.40;11.85;;;-2.50;99.90;;;;;;4955724;28;20108;-77
2022/03/02 05:16:43;;;;;;;23.50;12.60;;;-2.50;99.90;;;;;;4968675;28;20036;-77
2022/03/02 05:19:09;;;;;;;21.65;12.18;;;-2.40;99.90;;;;;;4952858;29;20514;-77
2022/03/02 05:21:35;;;;;;;26.60;12.65;;;-2.20;99.90;;;;;;4954092;29;20031;-77
2022/03/02 05:24:00;;;;;;;21.85;10.93;;;-2.30;99.90;;;;;;4935893;29;20031;-77
2022/03/02 05:26:26;;;;;;;21.45;12.13;;;-2.20;99.90;;;;;;4936056;29;20562;-77
2022/03/02 05:28:51;;;;;;;26.83;12.63;;;-2.40;99.90;;;;;;4934995;28;20039;-77
2022/03/02 05:31:18;;;;;;;22.67;12.63;;;-2.40;99.90;;;;;;4936414;28;20034;-77
2022/03/02 05:33:44;;;;;;;21.73;11.68;;;-2.30;99.90;;;;;;4954679;28;20038;-77
2022/03/02 05:36:10;;;;;;;24.10;11.73;;;-2.40;99.90;;;;;;4955144;28;20101;-77
2022/03/02 05:38:35;;;;;;;22.17;11.38;;;-2.30;99.90;;;;;;4953781;28;20027;-77
2022/03/02 05:41:01;;;;;;;22.13;11.77;;;-2.20;99.90;;;;;;4971575;28;20026;-77
2022/03/02 05:43:26;;;;;;;18.35;11.13;;;-2.30;99.90;;;;;;4972134;28;20035;-77
2022/03/02 05:45:52;;;;;;;24.27;11.45;;;-2.30;99.90;;;;;;4939244;28;20031;-77
2022/03/02 05:48:17;;;;;;;18.55;11.52;;;-2.40;99.90;;;;;;4944468;28;20114;-77
2022/03/02 05:50:43;;;;;;;21.05;11.90;;;-2.30;99.90;;;;;;4972872;28;20027;-77
2022/03/02 05:53:09;;;;;;;26.08;11.75;;;-2.20;99.90;;;;;;4954509;28;20058;-77
2022/03/02 05:55:35;;;;;;;19.92;11.70;;;-2.30;99.90;;;;;;4954399;28;20546;-77
2022/03/02 05:58:00;;;;;;;22.90;11.68;;;-2.30;99.90;;;;;;4971406;28;20096;-76
2022/03/02 06:00:26;;;;;;;20.15;11.23;;;-2.40;99.90;;;;;;4953888;28;20027;-77
2022/03/02 06:02:51;;;;;;;20.48;11.60;;;-2.00;99.90;;;;;;4970989;28;20158;-77
2022/03/02 06:05:17;;;;;;;22.20;10.05;;;-2.10;99.90;;;;;;4953601;28;20122;-76
2022/03/02 06:07:43;;;;;;;19.42;9.32;;;-1.70;99.90;;;;;;4953739;28;20027;-76
2022/03/02 06:10:09;;;;;;;20.50;10.27;;;-1.70;99.90;;;;;;4970906;28;20403;-76
2022/03/02 06:12:35;;;;;;;20.00;11.80;;;-1.80;99.90;;;;;;4954148;28;20046;-78
2022/03/02 06:15:01;;;;;;;16.65;10.25;;;-1.70;99.90;;;;;;4997952;28;20034;-77
2022/03/02 06:17:27;;;;;;;17.92;10.73;;;-2.00;99.90;;;;;;4969864;28;20079;-77
2022/03/02 06:19:53;;;;;;;17.80;10.65;;;-2.10;99.90;;;;;;4952554;28;20038;-77
2022/03/02 06:22:23;;;;;;;23.58;11.10;;;-2.30;99.90;;;;;;4964034;28;20038;-77
2022/03/02 06:24:51;;;;;;;18.67;10.60;;;-2.30;99.90;;;;;;4967464;28;20435;-77
2022/03/02 06:27:20;;;;;;;18.40;10.60;;;-2.40;99.90;;;;;;4969565;28;20027;-77
2022/03/02 06:29:46;;;;;;;18.48;10.10;;;-2.50;99.90;;;;;;4969464;28;20483;-77
2022/03/02 06:32:11;;;;;;;16.77;9.95;;;-2.50;99.90;;;;;;4970965;28;20027;-76
2022/03/02 06:34:37;;;;;;;20.00;11.85;;;-2.60;99.90;;;;;;4969529;28;20377;-76
2022/03/02 06:37:03;;;;;;;24.92;13.07;;;-2.80;99.90;;;;;;4953009;28;20101;-76
2022/03/02 06:39:28;;;;;;;21.48;12.38;;;-2.50;99.90;;;;;;4969866;28;20030;-76
2022/03/02 06:41:54;;;;;;;28.75;12.20;;;-2.50;99.90;;;;;;4953307;28;20023;-76
2022/03/02 06:44:37;;;;;;;21.17;11.73;;;-2.30;99.90;;;;;;4971851;28;20109;-77
2022/03/02 06:47:05;;;;;;;;;;;-2.30;99.90;;;;;;4972410;28;20035;-77
2022/03/02 06:49:48;;;;;;;21.02;11.40;;;-2.20;99.90;;;;;;4970408;28;20354;-76
2022/03/02 06:52:18;;;;;;;17.23;10.80;;;-2.20;99.90;;;;;;4953686;28;20034;-76
2022/03/02 06:54:46;;;;;;;16.35;10.65;;;-2.00;99.90;;;;;;4939169;28;20035;-76
2022/03/02 06:57:17;;;;;;;21.27;11.73;;;0.40;99.90;;;;;;4972295;28;20597;-76
2022/03/02 06:59:49;;;;;;;16.63;11.15;;;-1.80;99.90;;;;;;4964956;23;20503;-77
2022/03/02 07:02:38;;;;;;;24.98;14.75;;;-0.20;99.90;;;;;;4933050;28;20062;-77
2022/03/02 07:05:07;;;;;;;23.65;13.73;;;-1.60;99.90;;;;;;4950585;29;20161;-77
2022/03/02 07:07:34;;;;;;;22.40;12.65;;;-1.50;99.90;;;;;;4950587;29;20028;-77
2022/03/02 07:10:00;;;;;;;19.85;11.35;;;-1.10;99.90;;;;;;4950343;29;20102;-76
2022/03/02 07:12:27;;;;;;;17.63;10.85;;;-0.90;99.90;;;;;;4950277;29;20484;-76
2022/03/02 07:14:54;;;;;;;18.67;10.98;;;-0.70;99.90;;;;;;4950108;29;20031;-76
2022/03/02 07:17:21;;;;;;;22.15;12.02;;;-0.50;99.90;;;;;;4932565;28;20030;-76
2022/03/02 07:19:47;;;;;;;22.02;12.52;;;1.60;99.90;;;;;;4932951;29;20092;-77
2022/03/02 07:22:19;;;;;;;20.75;12.40;;;0.00;99.90;;;;;;4950863;28;20031;-77
2022/03/02 07:24:54;;;;;;;20.55;11.95;;;0.10;99.90;;;;;;4933561;28;20058;-77
2022/03/02 07:27:20;;;;;;;18.92;11.40;;;0.20;99.90;;;;;;4948674;29;20495;-77
2022/03/02 07:29:50;;;;;;;17.98;10.70;;;0.30;99.90;;;;;;4950426;28;20088;-77
2022/03/02 07:32:26;;;;;;;21.55;12.88;;;0.50;99.90;;;;;;4950741;28;20032;-78
2022/03/02 07:34:58;;;;;;;19.70;11.05;;;0.70;99.90;;;;;;4949812;29;20058;-78
2022/03/02 07:37:26;;;;;;;16.80;10.55;;;0.90;99.90;;;;;;4950153;29;20030;-78
2022/03/02 07:39:51;;;;;;;16.83;10.43;;;1.00;99.90;;;;;;4938459;28;20047;-78
2022/03/02 07:42:19;;;;;;;22.23;11.23;;;2.70;99.90;;;;;;4949238;29;20094;-77
2022/03/02 07:44:46;;;;;;;27.83;12.10;;;1.10;99.90;;;;;;4921831;28;20510;-78
2022/03/02 07:47:12;;;;;;;22.20;13.00;;;1.20;99.90;;;;;;4934196;29;20495;-77
2022/03/02 07:49:37;;;;;;;20.30;10.85;;;2.30;99.90;;;;;;4934836;29;20134;-77
2022/03/02 07:52:07;;;;;;;19.92;11.38;;;1.30;99.90;;;;;;4953271;28;20111;-78
2022/03/02 07:54:40;;;;;;;19.48;11.27;;;1.10;99.90;;;;;;4936640;29;20062;-78
2022/03/02 07:57:08;;;;;;;19.25;10.85;;;1.30;99.90;;;;;;4953187;29;20063;-79
2022/03/02 07:59:36;;;;;;;18.10;11.00;;;1.20;99.90;;;;;;4934763;28;20042;-78
2022/03/02 08:02:05;;;;;;;23.50;15.02;;;1.30;99.90;;;;;;4953961;29;20440;-78
2022/03/02 08:04:31;;;;;;;23.67;14.95;;;1.40;99.90;;;;;;4953326;28;20487;-78
2022/03/02 08:06:57;;;;;;;20.23;12.57;;;1.40;99.90;;;;;;4955257;29;20031;-79
2022/03/02 08:09:23;;;;;;;25.63;12.93;;;1.50;99.90;;;;;;4940008;28;20042;-79
2022/03/02 08:11:49;;;;;;;18.92;11.45;;;1.40;99.90;;;;;;4957066;29;20475;-79
2022/03/02 08:14:17;;;;;;;25.65;14.15;;;1.60;99.90;;;;;;4956860;29;20085;-78
2022/03/02 08:16:47;;;;;;;35.20;17.63;;;4.10;99.90;;;;;;4955793;28;20031;-78
2022/03/02 08:19:13;;;;;;;32.72;17.15;;;1.90;99.90;;;;;;4959106;29;20034;-79
2022/03/02 08:21:42;;;;;;;22.02;12.95;;;2.20;99.90;;;;;;4960146;28;20028;-78
2022/03/02 08:24:10;;;;;;;20.17;12.02;;;2.40;99.90;;;;;;4959728;28;20050;-77
2022/03/02 08:26:39;;;;;;;20.88;11.32;;;3.90;99.90;;;;;;4957755;29;20020;-76
2022/03/02 08:29:10;;;;;;;18.05;11.18;;;3.70;99.90;;;;;;4955690;28;20581;-76
2022/03/02 08:31:38;;;;;;;22.63;12.95;;;3.20;99.90;;;;;;4957091;28;20031;-76
2022/03/02 08:34:04;;;;;;;25.58;13.40;;;3.30;99.90;;;;;;4953971;29;20057;-77
2022/03/02 08:36:33;;;;;;;20.85;12.75;;;3.50;99.90;;;;;;4955007;29;20431;-77
2022/03/02 08:39:07;;;;;;;25.98;12.43;;;3.40;99.90;;;;;;4924346;28;20035;-78
2022/03/02 08:41:34;;;;;;;21.80;12.30;;;3.70;99.90;;;;;;4958462;29;20057;-78
2022/03/02 08:44:00;;;;;;;20.50;11.85;;;3.70;99.90;;;;;;4956538;29;20488;-79
2022/03/02 08:46:27;;;;;;;18.35;11.55;;;4.00;99.90;;;;;;4947685;29;20036;-79
2022/03/02 08:48:53;;;;;;;19.15;10.73;;;3.80;99.90;;;;;;4938117;28;20088;-79
2022/03/02 08:51:24;;;;;;;17.20;10.70;;;3.80;99.90;;;;;;4939741;28;20027;-79
2022/03/02 08:53:51;;;;;;;19.02;11.15;;;3.90;99.90;;;;;;4958006;29;20483;-79
2022/03/02 08:56:18;;;;;;;21.08;11.02;;;3.90;99.90;;;;;;4942029;29;20403;-79
2022/03/02 08:58:44;;;;;;;17.42;11.00;;;5.80;99.90;;;;;;4960911;28;20027;-79
2022/03/02 09:01:12;;;;;;;19.52;11.07;;;4.20;99.90;;;;;;4945379;28;20066;-79
2022/03/02 09:03:43;;;;;;;18.65;10.95;;;4.20;99.90;;;;;;4966856;29;20035;-79
2022/03/02 09:06:10;;;;;;;19.83;11.40;;;5.70;99.90;;;;;;4972592;29;20061;-79
2022/03/02 09:08:37;;;;;;;17.48;10.23;;;4.20;99.90;;;;;;4927052;29;20085;-78
2022/03/02 09:11:02;;;;;;;17.20;10.80;;;6.70;99.90;;;;;;4960295;28;20086;-79
2022/03/02 09:13:29;;;;;;;20.52;10.25;;;4.40;99.90;;;;;;4956984;28;20058;-77
2022/03/02 09:15:55;;;;;;;19.17;9.98;;;4.60;99.90;;;;;;4952971;29;20031;-79
2022/03/02 09:18:20;;;;;;;16.75;10.20;;;4.90;99.90;;;;;;4944699;29;20030;-78
2022/03/02 09:20:54;;;;;;;21.27;10.60;;;4.70;99.90;;;;;;4921052;29;20574;-77
2022/03/02 09:23:23;;;;;;;23.27;10.77;;;6.60;99.90;;;;;;4953172;28;20114;-77
2022/03/02 09:25:50;;;;;;;17.48;10.40;;;5.00;99.90;;;;;;4935735;28;20042;-77
2022/03/02 09:28:16;;;;;;;19.52;11.15;;;4.90;99.90;;;;;;4934956;28;20040;-77
2022/03/02 09:30:43;;;;;;;19.20;11.05;;;4.90;99.90;;;;;;4951256;29;20538;-77
2022/03/02 09:33:14;;;;;;;17.58;10.10;;;5.90;99.90;;;;;;4951782;28;20123;-77
2022/03/02 09:35:40;;;;;;;16.52;11.30;;;5.10;99.90;;;;;;4951752;29;20031;-77
2022/03/02 09:38:07;;;;;;;18.60;11.27;;;5.10;99.90;;;;;;4952079;28;20072;-78
2022/03/02 09:40:33;;;;;;;18.98;11.05;;;5.60;99.90;;;;;;4954224;28;20083;-79
2022/03/02 09:43:05;;;;;;;22.33;11.27;;;7.10;99.90;;;;;;4954926;28;20022;-78
2022/03/02 09:45:33;;;;;;;17.77;10.83;;;6.00;99.90;;;;;;4957470;28;20019;-79
2022/03/02 09:48:03;;;;;;;20.35;11.15;;;5.50;99.90;;;;;;4943041;28;20038;-78
2022/03/02 09:50:31;;;;;;;19.92;11.05;;;7.50;99.90;;;;;;4949547;28;20036;-81
2022/03/02 09:53:01;;;;;;;18.63;11.10;;;6.80;99.90;;;;;;4948535;28;20095;-78
2022/03/02 09:55:27;;;;;;;19.20;11.32;;;6.00;99.90;;;;;;4951491;28;20023;-80
2022/03/02 09:57:56;;;;;;;17.92;10.38;;;6.00;99.90;;;;;;4950408;28;20046;-81
2022/03/02 10:00:24;;;;;;;15.00;10.20;;;8.20;99.90;;;;;;4951031;29;20031;-79
2022/03/02 10:02:56;;;;;;;18.25;11.40;;;7.00;99.90;;;;;;4937298;29;20107;-78
2022/03/02 10:05:33;;;;;;;20.63;11.52;;;6.70;98.20;;;;;;4939808;28;20036;-80
2022/03/02 10:08:07;;;;;;;18.38;10.52;;;6.90;97.70;;;;;;4927930;29;20108;-78
2022/03/02 10:10:36;;;;;;;20.25;11.07;;;7.10;97.40;;;;;;4957507;29;20031;-78
2022/03/02 10:13:05;;;;;;;16.98;10.07;;;7.50;96.90;;;;;;4963443;28;20134;-78
2022/03/02 10:15:31;;;;;;;17.50;10.30;;;8.60;95.90;;;;;;4936821;28;20051;-77
2022/03/02 10:17:59;;;;;;;15.93;10.95;;;7.10;95.60;;;;;;4946035;28;20384;-77
2022/03/02 10:20:30;;;;;;;22.40;11.02;;;7.50;95.50;;;;;;4937795;29;20023;-76
2022/03/02 10:23:22;;;;;;;17.80;10.20;;;7.30;95.20;;;;;;4931484;29;20053;-77
2022/03/02 10:26:04;;;;;;;19.95;11.02;;;7.20;94.00;;;;;;4952285;29;20152;-76
2022/03/02 10:28:35;;;;;;;18.40;11.15;;;7.10;96.00;;;;;;4948252;29;20034;-77
2022/03/02 10:31:23;;;;;;;16.67;10.07;;;7.50;96.00;;;;;;4934587;29;20102;-77
2022/03/02 10:33:56;;;;;;;17.42;9.88;;;8.00;95.30;;;;;;4947911;28;20031;-77
2022/03/02 10:36:25;;;;;;;16.80;10.30;;;8.10;94.20;;;;;;4946850;28;20024;-76
2022/03/02 10:39:00;;;;;;;16.23;9.90;;;9.10;93.00;;;;;;4929352;29;20059;-76
2022/03/02 10:41:28;;;;;;;14.90;10.27;;;10.90;91.70;;;;;;4946403;29;20020;-76
2022/03/02 10:43:57;;;;;;;18.40;9.88;;;9.30;90.20;;;;;;4945989;29;20403;-76
2022/03/02 10:46:25;;;;;;;18.40;9.52;;;9.70;89.50;;;;;;4929982;29;20043;-78
2022/03/02 10:49:21;;;;;;;17.65;10.50;;;9.40;88.70;;;;;;4954675;29;20796;-78
2022/03/02 10:51:47;;;;;;;15.45;10.60;;;9.20;83.60;;;;;;4935711;29;20100;-78
2022/03/02 10:54:20;;;;;;;18.00;9.75;;;8.90;84.40;;;;;;4962289;28;20083;-76
2022/03/02 10:56:52;;;;;;;14.90;9.40;;;9.10;84.40;;;;;;4957076;28;20051;-76
2022/03/02 10:59:24;;;;;;;16.92;9.70;;;9.30;82.90;;;;;;4946829;29;20062;-76
2022/03/02 11:01:51;;;;;;;14.98;9.65;;;9.60;82.00;;;;;;4946773;28;20081;-76
2022/03/02 11:04:23;;;;;;;17.75;10.27;;;9.70;80.80;;;;;;4954147;29;20049;-77
2022/03/02 11:06:48;;;;;;;19.75;10.27;;;10.20;78.10;;;;;;4942940;29;20487;-75
2022/03/02 11:09:17;;;;;;;18.25;9.77;;;10.10;77.20;;;;;;4948590;29;21014;-76
2022/03/02 11:11:43;;;;;;;16.35;10.18;;;10.90;78.30;;;;;;4929305;29;20067;-76
2022/03/02 11:14:09;;;;;;;14.38;10.32;;;10.80;74.90;;;;;;4946339;28;20036;-76
2022/03/02 11:16:35;;;;;;;19.92;9.98;;;11.30;72.30;;;;;;4929387;28;20086;-76
2022/03/02 11:19:15;;;;;;;18.38;9.90;;;11.10;72.30;;;;;;4944869;29;20027;-76
2022/03/02 11:21:43;;;;;;;15.60;9.90;;;11.50;71.80;;;;;;4948978;28;20031;-77
2022/03/02 11:24:16;;;;;;;13.50;9.23;;;12.10;71.80;;;;;;4914732;28;20107;-78
2022/03/02 11:26:43;;;;;;;15.73;10.20;;;10.70;69.70;;;;;;4934063;29;20024;-78
2022/03/02 11:29:12;;;;;;;18.35;10.38;;;10.90;70.00;;;;;;4933194;28;20032;-77
2022/03/02 11:31:57;;;;;;;14.82;10.10;;;11.10;70.70;;;;;;4952370;29;20043;-78
2022/03/02 11:34:24;;;;;;;16.90;11.02;;;10.50;71.50;;;;;;4950077;28;20043;-77
2022/03/02 11:36:58;;;;;;;15.32;9.57;;;10.30;72.70;;;;;;4949058;28;20101;-77
2022/03/02 11:39:27;;;;;;;15.73;9.65;;;10.60;73.50;;;;;;4949220;29;20027;-77
2022/03/02 11:42:04;;;;;;;19.00;9.75;;;12.90;72.40;;;;;;4934150;28;20020;-78
2022/03/02 11:44:36;;;;;;;16.05;9.77;;;12.40;68.20;;;;;;4952269;29;20035;-78
2022/03/02 11:47:13;;;;;;;14.00;9.70;;;13.10;66.60;;;;;;4951320;29;20664;-78
2022/03/02 11:49:50;;;;;;;17.50;10.15;;;14.20;60.60;;;;;;4941621;29;20329;-78
2022/03/02 11:52:24;;;;;;;15.57;9.90;;;13.40;61.20;;;;;;4951865;29;20035;-79
2022/03/02 11:54:56;;;;;;;14.13;10.15;;;13.20;61.80;;;;;;4952928;28;20028;-77
2022/03/02 11:57:24;;;;;;;15.60;9.27;;;13.40;61.50;;;;;;4950254;28;20028;-76
2022/03/02 12:00:19;;;;;;;14.50;9.05;;;14.00;64.60;;;;;;4950509;28;20507;-78
2022/03/02 12:02:51;;;;;;;14.48;9.93;;;13.10;63.90;;;;;;4954000;29;20020;-78
2022/03/02 12:05:28;;;;;;;14.65;10.50;;;12.50;65.50;;;;;;4935035;29;20047;-78
2022/03/02 12:08:09;;;;;;;17.55;10.02;;;12.30;63.40;;;;;;4948527;28;20663;-78
2022/03/02 12:10:40;;;;;;;13.10;9.38;;;12.00;63.00;;;;;;4948068;28;20492;-78
2022/03/02 12:13:06;;;;;;;15.25;10.00;;;12.30;64.50;;;;;;4949367;29;20093;-79
2022/03/02 12:15:44;;;;;;;15.75;10.10;;;11.20;64.40;;;;;;4951873;29;20418;-79
2022/03/02 12:18:12;;;;;;;43.03;21.85;;;11.00;66.30;;;;;;4950266;28;20024;-79
2022/03/02 12:20:57;;;;;;;59.63;29.55;;;10.50;69.10;;;;;;4933502;28;20035;-78
2022/03/02 12:23:23;;;;;;;17.48;11.30;;;9.70;71.20;;;;;;4930981;28;20040;-78
2022/03/02 12:25:49;;;;;;;20.02;13.07;;;10.20;70.70;;;;;;4947811;29;20039;-78
2022/03/02 12:28:17;;;;;;;16.13;10.60;;;10.00;70.80;;;;;;4948763;29;20465;-78
2022/03/02 12:30:43;;;;;;;16.02;9.35;;;11.70;72.40;;;;;;4948187;28;20039;-77
2022/03/02 12:33:09;;;;;;;13.27;9.13;;;9.80;71.00;;;;;;4948044;28;20031;-76
2022/03/02 12:35:35;;;;;;;14.43;9.32;;;10.00;70.90;;;;;;4931581;28;20831;-76
2022/03/02 12:38:08;;;;;;;13.98;9.55;;;10.90;72.30;;;;;;4929880;28;20027;-76
2022/03/02 12:40:42;;;;;;;15.68;9.70;;;9.30;69.90;;;;;;4942138;29;20594;-76
2022/03/02 12:43:09;;;;;;;12.93;9.38;;;9.80;72.90;;;;;;4940938;29;20027;-76